sensor_id;sensor_type;location;lat;lon;timestamp;pressure;altitude;pressure_sealevel;temperature;humidity
29197;BME280;62796;42.654;23.316;2022-11-15T00:01:34;95135.94;;;8.31;54.11
29197;BME280;62796;42.654;23.316;2022-11-15T00:04:05;95134.97;;;8.25;55.20
29197;BME280;62796;42.654;23.316;2022-11-15T00:06:31;95138.06;;;8.27;54.59
29197;BME280;62796;42.654;23.316;2022-11-15T00:08:59;95131.78;;;8.26;54.53
29197;BME280;62796;42.654;23.316;2022-11-15T00:11:25;95121.91;;;8.16;54.24
29197;BME280;62796;42.654;23.316;2022-11-15T00:13:51;95125.63;;;8.22;55.87
29197;BME280;62796;42.654;23.316;2022-11-15T00:16:19;95132.34;;;8.21;55.91
29197;BME280;62796;42.654;23.316;2022-11-15T00:18:45;95121.63;;;8.14;56.02
29197;BME280;62796;42.654;23.316;2022-11-15T00:21:11;95122.84;;;8.13;56.08
29197;BME280;62796;42.654;23.316;2022-11-15T00:23:37;95125.28;;;8.11;55.21
29197;BME280;62796;42.654;23.316;2022-11-15T00:26:03;95122.22;;;8.09;54.88
29197;BME280;62796;42.654;23.316;2022-11-15T00:28:28;95118.22;;;8.10;55.15
29197;BME280;62796;42.654;23.316;2022-11-15T00:31:00;95117.31;;;8.13;55.50
29197;BME280;62796;42.654;23.316;2022-11-15T00:33:25;95112.41;;;8.08;55.21
29197;BME280;62796;42.654;23.316;2022-11-15T00:35:51;95113.63;;;8.07;55.33
29197;BME280;62796;42.654;23.316;2022-11-15T00:38:16;95101.81;;;8.07;55.27
29197;BME280;62796;42.654;23.316;2022-11-15T00:40:42;95108.88;;;8.08;54.95
29197;BME280;62796;42.654;23.316;2022-11-15T00:43:07;95110.84;;;8.07;55.00
29197;BME280;62796;42.654;23.316;2022-11-15T00:45:32;95108.41;;;8.00;55.19
29197;BME280;62796;42.654;23.316;2022-11-15T00:47:58;95110.56;;;8.05;54.87
29197;BME280;62796;42.654;23.316;2022-11-15T00:50:23;95111.94;;;8.10;54.76
29197;BME280;62796;42.654;23.316;2022-11-15T00:52:49;95112.41;;;8.08;54.38
29197;BME280;62796;42.654;23.316;2022-11-15T00:55:18;95102.59;;;8.07;54.26
29197;BME280;62796;42.654;23.316;2022-11-15T00:57:45;95103.50;;;8.04;54.65
29197;BME280;62796;42.654;23.316;2022-11-15T01:00:12;95099.50;;;7.96;55.21
29197;BME280;62796;42.654;23.316;2022-11-15T01:02:38;95101.94;;;7.94;54.99
29197;BME280;62796;42.654;23.316;2022-11-15T01:05:03;95092.41;;;7.86;54.88
29197;BME280;62796;42.654;23.316;2022-11-15T01:07:29;95095.31;;;7.92;54.87
29197;BME280;62796;42.654;23.316;2022-11-15T01:09:54;95096.06;;;7.83;54.74
29197;BME280;62796;42.654;23.316;2022-11-15T01:12:20;95101.28;;;7.81;54.86
29197;BME280;62796;42.654;23.316;2022-11-15T01:14:45;95086.84;;;7.77;54.87
29197;BME280;62796;42.654;23.316;2022-11-15T01:17:11;95096.41;;;7.85;54.47
29197;BME280;62796;42.654;23.316;2022-11-15T01:19:36;95096.06;;;7.83;54.74
29197;BME280;62796;42.654;23.316;2022-11-15T01:22:02;95094.84;;;7.84;54.55
29197;BME280;62796;42.654;23.316;2022-11-15T01:24:27;95088.69;;;7.80;54.71
29197;BME280;62796;42.654;23.316;2022-11-15T01:26:53;95095.75;;;7.81;54.72
29197;BME280;62796;42.654;23.316;2022-11-15T01:29:18;95093.59;;;7.76;54.88
29197;BME280;62796;42.654;23.316;2022-11-15T01:31:43;95088.34;;;7.69;54.73
29197;BME280;62796;42.654;23.316;2022-11-15T01:34:09;95088.09;;;7.76;55.07
29197;BME280;62796;42.654;23.316;2022-11-15T01:36:34;95078.88;;;7.70;54.96
29197;BME280;62796;42.654;23.316;2022-11-15T01:39:00;95079.44;;;7.65;55.07
29197;BME280;62796;42.654;23.316;2022-11-15T01:41:28;95082.19;;;7.65;55.25
29197;BME280;62796;42.654;23.316;2022-11-15T01:43:57;95085.16;;;7.70;55.40
29197;BME280;62796;42.654;23.316;2022-11-15T01:46:29;95085.47;;;7.72;55.33
29197;BME280;62796;42.654;23.316;2022-11-15T01:48:58;95076.38;;;7.63;55.39
29197;BME280;62796;42.654;23.316;2022-11-15T01:51:27;95089.72;;;7.64;55.44
29197;BME280;62796;42.654;23.316;2022-11-15T01:53:58;95084.22;;;7.64;56.16
29197;BME280;62796;42.654;23.316;2022-11-15T01:56:29;95081.13;;;7.62;55.75
29197;BME280;62796;42.654;23.316;2022-11-15T01:58:56;95076.38;;;7.63;55.93
29197;BME280;62796;42.654;23.316;2022-11-15T02:01:25;95085.28;;;7.67;56.41
29197;BME280;62796;42.654;23.316;2022-11-15T02:03:55;95084.38;;;7.70;55.83
29197;BME280;62796;42.654;23.316;2022-11-15T02:06:22;95076.41;;;7.72;55.46
29197;BME280;62796;42.654;23.316;2022-11-15T02:08:49;95076.56;;;7.68;55.31
29197;BME280;62796;42.654;23.316;2022-11-15T02:11:14;95075.16;;;7.64;55.59
29197;BME280;62796;42.654;23.316;2022-11-15T02:13:40;95079.00;;;7.66;55.73
29197;BME280;62796;42.654;23.316;2022-11-15T02:18:41;95071.47;;;7.58;55.69
29197;BME280;62796;42.654;23.316;2022-11-15T02:21:28;95079.13;;;7.63;55.95
29197;BME280;62796;42.654;23.316;2022-11-15T02:26:58;95079.78;;;7.67;55.53
29197;BME280;62796;42.654;23.316;2022-11-15T02:32:20;95068.38;;;7.56;55.67
29197;BME280;62796;42.654;23.316;2022-11-15T02:35:00;95048.44;;;7.43;55.51
29197;BME280;62796;42.654;23.316;2022-11-15T02:38:31;95069.16;;;7.56;55.42
29197;BME280;62796;42.654;23.316;2022-11-15T02:43:10;95061.97;;;7.59;55.22
29197;BME280;62796;42.654;23.316;2022-11-15T02:46:18;95070.81;;;7.54;55.40
29197;BME280;62796;42.654;23.316;2022-11-15T02:48:45;95076.03;;;7.52;55.44
29197;BME280;62796;42.654;23.316;2022-11-15T02:51:11;95068.38;;;7.56;54.98
29197;BME280;62796;42.654;23.316;2022-11-15T02:53:37;95068.72;;;7.58;55.34
29197;BME280;62796;42.654;23.316;2022-11-15T02:56:03;95065.31;;;7.54;55.38
29197;BME280;62796;42.654;23.316;2022-11-15T03:06:41;95076.97;;;7.58;55.95
29197;BME280;62796;42.654;23.316;2022-11-15T03:09:34;95086.19;;;7.64;55.89
29197;BME280;62796;42.654;23.316;2022-11-15T03:12:08;95077.31;;;7.69;55.47
29197;BME280;62796;42.654;23.316;2022-11-15T03:14:52;95071.03;;;7.68;55.57
29197;BME280;62796;42.654;23.316;2022-11-15T03:17:32;95066.44;;;7.65;55.53
29197;BME280;62796;42.654;23.316;2022-11-15T03:20:01;95067.50;;;7.68;55.64
29197;BME280;62796;42.654;23.316;2022-11-15T03:22:29;95064.63;;;7.71;55.85
29197;BME280;62796;42.654;23.316;2022-11-15T03:24:58;95054.94;;;7.58;56.21
29197;BME280;62796;42.654;23.316;2022-11-15T03:27:30;95068.16;;;7.72;56.10
29197;BME280;62796;42.654;23.316;2022-11-15T03:30:03;95062.94;;;7.74;56.25
29197;BME280;62796;42.654;23.316;2022-11-15T03:32:32;95058.19;;;7.74;56.41
29197;BME280;62796;42.654;23.316;2022-11-15T03:35:06;95061.75;;;7.84;56.42
29197;BME280;62796;42.654;23.316;2022-11-15T03:40:14;95055.97;;;7.91;56.61
29197;BME280;62796;42.654;23.316;2022-11-15T03:42:54;95045.41;;;7.99;56.62
29197;BME280;62796;42.654;23.316;2022-11-15T03:45:27;95049.38;;;7.98;56.17
29197;BME280;62796;42.654;23.316;2022-11-15T03:48:21;95047.53;;;8.04;56.82
29197;BME280;62796;42.654;23.316;2022-11-15T03:50:48;95037.16;;;8.08;57.07
29197;BME280;62796;42.654;23.316;2022-11-15T03:53:14;95037.59;;;8.15;56.52
29197;BME280;62796;42.654;23.316;2022-11-15T03:55:39;95042.22;;;8.18;57.10
29197;BME280;62796;42.654;23.316;2022-11-15T03:58:05;95033.47;;;8.20;57.94
29197;BME280;62796;42.654;23.316;2022-11-15T04:00:31;95033.34;;;8.23;57.90
29197;BME280;62796;42.654;23.316;2022-11-15T04:02:56;95027.66;;;8.18;57.93
29197;BME280;62796;42.654;23.316;2022-11-15T04:05:22;95046.56;;;8.28;58.05
29197;BME280;62796;42.654;23.316;2022-11-15T04:07:47;95042.88;;;8.31;58.55
29197;BME280;62796;42.654;23.316;2022-11-15T04:10:13;95040.13;;;8.31;58.88
29197;BME280;62796;42.654;23.316;2022-11-15T04:12:44;95025.88;;;8.33;59.11
29197;BME280;62796;42.654;23.316;2022-11-15T04:15:14;95036.00;;;8.45;58.76
29197;BME280;62796;42.654;23.316;2022-11-15T04:17:41;95028.94;;;8.35;59.25
29197;BME280;62796;42.654;23.316;2022-11-15T04:20:18;95031.53;;;8.29;59.40
29197;BME280;62796;42.654;23.316;2022-11-15T04:23:04;95024.59;;;8.25;59.56
29197;BME280;62796;42.654;23.316;2022-11-15T04:25:51;95028.75;;;8.20;59.49
29197;BME280;62796;42.654;23.316;2022-11-15T04:28:17;95031.50;;;8.20;59.32
29197;BME280;62796;42.654;23.316;2022-11-15T04:30:43;95020.91;;;8.19;59.85
29197;BME280;62796;42.654;23.316;2022-11-15T04:33:09;95031.34;;;8.24;60.02
29197;BME280;62796;42.654;23.316;2022-11-15T04:35:34;95029.22;;;8.28;60.02
29197;BME280;62796;42.654;23.316;2022-11-15T04:38:01;95027.53;;;8.30;59.90
29197;BME280;62796;42.654;23.316;2022-11-15T04:40:27;95025.69;;;8.27;59.30
29197;BME280;62796;42.654;23.316;2022-11-15T04:42:52;95022.94;;;8.27;58.96
29197;BME280;62796;42.654;23.316;2022-11-15T04:45:18;95027.81;;;8.23;59.82
29197;BME280;62796;42.654;23.316;2022-11-15T04:47:44;95030.88;;;8.16;59.71
29197;BME280;62796;42.654;23.316;2022-11-15T04:50:10;95026.75;;;8.12;60.23
29197;BME280;62796;42.654;23.316;2022-11-15T04:52:39;95026.41;;;8.01;60.63
29197;BME280;62796;42.654;23.316;2022-11-15T04:55:05;95039.75;;;8.02;60.61
29197;BME280;62796;42.654;23.316;2022-11-15T04:57:31;95030.53;;;7.96;60.90
29197;BME280;62796;42.654;23.316;2022-11-15T04:59:56;95034.66;;;7.92;60.96
29197;BME280;62796;42.654;23.316;2022-11-15T05:02:21;95036.47;;;7.86;61.38
29197;BME280;62796;42.654;23.316;2022-11-15T05:04:47;95030.50;;;7.87;61.28
29197;BME280;62796;42.654;23.316;2022-11-15T05:07:12;95029.88;;;7.83;61.68
29197;BME280;62796;42.654;23.316;2022-11-15T05:09:38;95035.72;;;7.85;61.56
29197;BME280;62796;42.654;23.316;2022-11-15T05:12:03;95041.84;;;7.89;61.54
29197;BME280;62796;42.654;23.316;2022-11-15T05:14:28;95035.25;;;7.87;61.39
29197;BME280;62796;42.654;23.316;2022-11-15T05:16:54;95040.00;;;7.86;61.82
29197;BME280;62796;42.654;23.316;2022-11-15T05:19:19;95037.25;;;7.86;61.16
29197;BME280;62796;42.654;23.316;2022-11-15T05:21:45;95037.25;;;7.86;61.72
29197;BME280;62796;42.654;23.316;2022-11-15T05:24:10;95026.34;;;7.82;61.68
29197;BME280;62796;42.654;23.316;2022-11-15T05:26:36;95029.09;;;7.73;60.86
29197;BME280;62796;42.654;23.316;2022-11-15T05:29:02;95032.59;;;7.74;59.09
29197;BME280;62796;42.654;23.316;2022-11-15T05:31:27;95028.34;;;7.73;57.93
29197;BME280;62796;42.654;23.316;2022-11-15T05:33:54;95034.75;;;7.70;58.19
29197;BME280;62796;42.654;23.316;2022-11-15T05:36:37;95025.41;;;7.67;57.87
29197;BME280;62796;42.654;23.316;2022-11-15T05:39:04;95032.31;;;7.72;57.45
29197;BME280;62796;42.654;23.316;2022-11-15T05:41:34;95030.16;;;7.67;57.40
29197;BME280;62796;42.654;23.316;2022-11-15T05:44:01;95033.84;;;7.73;57.60
29197;BME280;62796;42.654;23.316;2022-11-15T05:46:28;95040.88;;;7.74;57.37
29197;BME280;62796;42.654;23.316;2022-11-15T05:48:55;95038.47;;;7.76;57.21
29197;BME280;62796;42.654;23.316;2022-11-15T05:51:22;95032.94;;;7.76;57.74
29197;BME280;62796;42.654;23.316;2022-11-15T05:53:48;95027.44;;;7.76;57.65
29197;BME280;62796;42.654;23.316;2022-11-15T05:56:15;95035.22;;;7.77;57.90
29197;BME280;62796;42.654;23.316;2022-11-15T05:58:41;95038.63;;;7.82;57.63
29197;BME280;62796;42.654;23.316;2022-11-15T06:01:07;95049.19;;;7.83;58.27
29197;BME280;62796;42.654;23.316;2022-11-15T06:03:32;95035.72;;;7.85;58.04
29197;BME280;62796;42.654;23.316;2022-11-15T06:05:58;95038.78;;;7.87;58.15
29197;BME280;62796;42.654;23.316;2022-11-15T06:08:23;95038.94;;;7.93;58.47
29197;BME280;62796;42.654;23.316;2022-11-15T06:10:49;95035.75;;;7.94;58.41
29197;BME280;62796;42.654;23.316;2022-11-15T06:13:14;95051.69;;;7.99;58.66
29197;BME280;62796;42.654;23.316;2022-11-15T06:15:39;95048.31;;;8.04;58.19
29197;BME280;62796;42.654;23.316;2022-11-15T06:18:05;95055.06;;;8.03;58.89
29197;BME280;62796;42.654;23.316;2022-11-15T06:20:30;95052.94;;;8.07;58.55
29197;BME280;62796;42.654;23.316;2022-11-15T06:23:00;95048.03;;;8.11;58.81
29197;BME280;62796;42.654;23.316;2022-11-15T06:25:27;95057.84;;;8.21;58.70
29197;BME280;62796;42.654;23.316;2022-11-15T06:27:54;95047.91;;;8.24;59.02
29197;BME280;62796;42.654;23.316;2022-11-15T06:30:20;95043.13;;;8.24;58.60
29197;BME280;62796;42.654;23.316;2022-11-15T06:32:46;95040.38;;;8.24;58.78
29197;BME280;62796;42.654;23.316;2022-11-15T06:35:12;95040.38;;;8.24;59.18
29197;BME280;62796;42.654;23.316;2022-11-15T06:37:37;95035.19;;;8.26;59.20
29197;BME280;62796;42.654;23.316;2022-11-15T06:40:03;95029.22;;;8.28;59.49
29197;BME280;62796;42.654;23.316;2022-11-15T06:42:29;95032.59;;;7.74;61.30
29197;BME280;62796;42.654;23.316;2022-11-15T06:44:54;95030.56;;;6.95;62.49
29197;BME280;62796;42.654;23.316;2022-11-15T06:47:19;95028.47;;;5.74;62.32
29197;BME280;62796;42.654;23.316;2022-11-15T06:49:45;95039.50;;;5.49;64.90
29197;BME280;62796;42.654;23.316;2022-11-15T06:52:10;95046.38;;;5.91;69.67
29197;BME280;62796;42.654;23.316;2022-11-15T06:54:36;95031.47;;;6.27;68.59
29197;BME280;62796;42.654;23.316;2022-11-15T06:57:01;95035.03;;;6.36;67.37
29197;BME280;62796;42.654;23.316;2022-11-15T06:59:26;95048.69;;;6.05;68.25
29197;BME280;62796;42.654;23.316;2022-11-15T07:01:52;95039.50;;;5.49;71.42
29197;BME280;62796;42.654;23.316;2022-11-15T07:04:17;95036.06;;;5.20;72.60
29197;BME280;62796;42.654;23.316;2022-11-15T07:06:46;95037.84;;;5.39;71.79
29197;BME280;62796;42.654;23.316;2022-11-15T07:09:12;95041.47;;;5.36;71.18
29197;BME280;62796;42.654;23.316;2022-11-15T07:11:37;95030.38;;;5.01;72.80
29197;BME280;62796;42.654;23.316;2022-11-15T07:14:03;95027.75;;;4.69;74.47
29197;BME280;62796;42.654;23.316;2022-11-15T07:16:28;95024.47;;;4.62;74.81
29197;BME280;62796;42.654;23.316;2022-11-15T07:18:54;95036.84;;;4.54;75.60
29197;BME280;62796;42.654;23.316;2022-11-15T07:21:19;95023.94;;;4.38;76.17
29197;BME280;62796;42.654;23.316;2022-11-15T07:23:44;95021.34;;;4.47;75.34
29197;BME280;62796;42.654;23.316;2022-11-15T07:26:10;95027.97;;;4.62;75.49
29197;BME280;62796;42.654;23.316;2022-11-15T07:28:35;95030.84;;;4.71;72.04
29197;BME280;62796;42.654;23.316;2022-11-15T07:31:03;95038.72;;;4.69;76.77
29197;BME280;62796;42.654;23.316;2022-11-15T07:33:28;95033.31;;;5.20;75.27
29197;BME280;62796;42.654;23.316;2022-11-15T07:35:58;95038.28;;;5.25;73.87
29197;BME280;62796;42.654;23.316;2022-11-15T07:38:24;95043.13;;;5.46;76.98
29197;BME280;62796;42.654;23.316;2022-11-15T07:40:59;95034.63;;;5.02;71.95
29197;BME280;62796;42.654;23.316;2022-11-15T07:43:25;95035.59;;;4.96;74.07
29197;BME280;62796;42.654;23.316;2022-11-15T07:45:52;95037.06;;;5.00;74.77
29197;BME280;62796;42.654;23.316;2022-11-15T07:48:18;95038.03;;;4.94;75.13
29197;BME280;62796;42.654;23.316;2022-11-15T07:50:43;95024.06;;;4.88;74.76
29197;BME280;62796;42.654;23.316;2022-11-15T07:53:09;95039.09;;;4.71;76.30
29197;BME280;62796;42.654;23.316;2022-11-15T07:55:35;95034.38;;;4.72;76.62
29197;BME280;62796;42.654;23.316;2022-11-15T07:58:06;95034.78;;;4.70;76.29
29197;BME280;62796;42.654;23.316;2022-11-15T08:00:32;95031.03;;;4.64;76.86
29197;BME280;62796;42.654;23.316;2022-11-15T08:03:15;95027.00;;;4.69;76.35
29197;BME280;62796;42.654;23.316;2022-11-15T08:05:42;95026.28;;;4.93;75.17
29197;BME280;62796;42.654;23.316;2022-11-15T08:08:09;95029.00;;;4.93;74.83
29197;BME280;62796;42.654;23.316;2022-11-15T08:10:36;95030.22;;;5.05;74.58
29197;BME280;62796;42.654;23.316;2022-11-15T08:13:04;95021.00;;;4.86;71.26
29197;BME280;62796;42.654;23.316;2022-11-15T08:15:30;95029.59;;;5.14;75.43
29197;BME280;62796;42.654;23.316;2022-11-15T08:17:58;95032.25;;;5.55;73.73
29197;BME280;62796;42.654;23.316;2022-11-15T08:20:24;95037.84;;;5.64;74.71
29197;BME280;62796;42.654;23.316;2022-11-15T08:22:50;95023.44;;;5.60;70.82
29197;BME280;62796;42.654;23.316;2022-11-15T08:25:16;95023.09;;;5.20;74.46
29197;BME280;62796;42.654;23.316;2022-11-15T08:27:42;95018.63;;;5.14;75.52
29197;BME280;62796;42.654;23.316;2022-11-15T08:30:07;95015.31;;;5.06;75.55
29197;BME280;62796;42.654;23.316;2022-11-15T08:32:33;95020.56;;;5.00;75.53
29197;BME280;62796;42.654;23.316;2022-11-15T08:34:59;95025.41;;;4.96;76.22
29197;BME280;62796;42.654;23.316;2022-11-15T08:37:24;95015.97;;;4.97;76.33
29197;BME280;62796;42.654;23.316;2022-11-15T08:39:49;95022.34;;;5.20;75.45
29197;BME280;62796;42.654;23.316;2022-11-15T08:42:15;95010.28;;;5.05;76.33
29197;BME280;62796;42.654;23.316;2022-11-15T08:44:42;95009.59;;;5.00;76.39
29197;BME280;62796;42.654;23.316;2022-11-15T08:47:07;95011.88;;;5.02;76.39
29197;BME280;62796;42.654;23.316;2022-11-15T08:49:35;95014.66;;;5.15;76.32
29197;BME280;62796;42.654;23.316;2022-11-15T08:52:01;95002.91;;;5.14;76.15
29197;BME280;62796;42.654;23.316;2022-11-15T08:54:26;95010.38;;;5.14;75.88
29197;BME280;62796;42.654;23.316;2022-11-15T08:56:51;95003.66;;;4.89;73.67
29197;BME280;62796;42.654;23.316;2022-11-15T08:59:17;94993.09;;;5.51;75.33
29197;BME280;62796;42.654;23.316;2022-11-15T09:01:42;94997.75;;;6.01;74.03
29197;BME280;62796;42.654;23.316;2022-11-15T09:04:08;94996.22;;;6.00;74.97
29197;BME280;62796;42.654;23.316;2022-11-15T09:06:33;94992.53;;;6.16;68.95
29197;BME280;62796;42.654;23.316;2022-11-15T09:09:00;94974.03;;;5.82;73.31
29197;BME280;62796;42.654;23.316;2022-11-15T09:11:25;94973.97;;;5.60;73.83
29197;BME280;62796;42.654;23.316;2022-11-15T09:13:51;94980.75;;;5.68;73.72
29197;BME280;62796;42.654;23.316;2022-11-15T09:16:17;94985.75;;;5.61;73.99
29197;BME280;62796;42.654;23.316;2022-11-15T09:18:43;94974.06;;;5.69;74.03
29197;BME280;62796;42.654;23.316;2022-11-15T09:21:09;94970.66;;;5.65;73.87
29197;BME280;62796;42.654;23.316;2022-11-15T09:23:34;94975.94;;;5.59;74.40
29197;BME280;62796;42.654;23.316;2022-11-15T09:26:00;94971.31;;;5.69;73.80
29197;BME280;62796;42.654;23.316;2022-11-15T09:28:28;94971.31;;;5.69;74.18
29197;BME280;62796;42.654;23.316;2022-11-15T09:30:58;94954.44;;;5.58;73.76
29197;BME280;62796;42.654;23.316;2022-11-15T09:33:24;94958.22;;;5.86;73.09
29197;BME280;62796;42.654;23.316;2022-11-15T09:35:50;94964.19;;;5.59;74.01
29197;BME280;62796;42.654;23.316;2022-11-15T09:38:15;94962.69;;;5.80;74.58
29197;BME280;62796;42.654;23.316;2022-11-15T09:40:41;94954.59;;;5.76;71.84
29197;BME280;62796;42.654;23.316;2022-11-15T09:43:23;94948.94;;;6.27;73.57
29197;BME280;62796;42.654;23.316;2022-11-15T09:46:01;94942.50;;;6.73;72.38
29197;BME280;62796;42.654;23.316;2022-11-15T09:56:26;94927.19;;;6.41;71.34
29197;BME280;62796;42.654;23.316;2022-11-15T09:59:04;94933.13;;;6.40;71.18
29197;BME280;62796;42.654;23.316;2022-11-15T10:04:05;94920.00;;;6.44;70.52
29197;BME280;62796;42.654;23.316;2022-11-15T10:06:32;94910.03;;;6.16;71.19
29197;BME280;62796;42.654;23.316;2022-11-15T10:09:01;94905.47;;;6.43;71.52
29197;BME280;62796;42.654;23.316;2022-11-15T10:11:30;94906.44;;;6.49;70.54
29197;BME280;62796;42.654;23.316;2022-11-15T10:14:00;94896.56;;;6.61;70.92
29197;BME280;62796;42.654;23.316;2022-11-15T10:16:45;94894.50;;;6.74;70.48
29197;BME280;62796;42.654;23.316;2022-11-15T10:19:55;94900.34;;;6.85;70.61
29197;BME280;62796;42.654;23.316;2022-11-15T10:22:26;94897.91;;;6.87;68.45
29197;BME280;62796;42.654;23.316;2022-11-15T10:25:26;94891.28;;;7.15;73.12
29197;BME280;62796;42.654;23.316;2022-11-15T10:30:41;94880.69;;;7.99;67.03
29197;BME280;62796;42.654;23.316;2022-11-15T10:33:20;94862.69;;;8.49;64.82
29197;BME280;62796;42.654;23.316;2022-11-15T10:35:48;94873.47;;;8.89;63.93
29197;BME280;62796;42.654;23.316;2022-11-15T10:38:14;94876.19;;;9.31;63.15
29197;BME280;62796;42.654;23.316;2022-11-15T10:40:40;94864.22;;;9.96;61.44
29197;BME280;62796;42.654;23.316;2022-11-15T10:43:14;94860.19;;;10.94;57.88
29197;BME280;62796;42.654;23.316;2022-11-15T10:45:41;94848.84;;;11.61;54.44
29197;BME280;62796;42.654;23.316;2022-11-15T10:50:43;94844.94;;;12.14;53.25
29197;BME280;62796;42.654;23.316;2022-11-15T10:53:31;94834.78;;;13.14;49.95
29197;BME280;62796;42.654;23.316;2022-11-15T10:56:05;94834.75;;;14.04;46.80
29197;BME280;62796;42.654;23.316;2022-11-15T10:58:41;94830.13;;;13.84;45.71
29197;BME280;62796;42.654;23.316;2022-11-15T11:01:14;94825.34;;;13.91;45.48
29197;BME280;62796;42.654;23.316;2022-11-15T11:03:42;94822.25;;;14.64;44.49
29197;BME280;62796;42.654;23.316;2022-11-15T11:06:09;94808.03;;;15.45;42.78
29197;BME280;62796;42.654;23.316;2022-11-15T11:08:35;94815.44;;;16.12;39.41
29197;BME280;62796;42.654;23.316;2022-11-15T11:11:03;94806.03;;;15.35;41.69
29197;BME280;62796;42.654;23.316;2022-11-15T11:16:15;94798.94;;;16.60;38.87
29197;BME280;62796;42.654;23.316;2022-11-15T11:24:36;94785.31;;;17.10;37.53
29197;BME280;62796;42.654;23.316;2022-11-15T11:27:36;94784.34;;;17.62;36.23
29197;BME280;62796;42.654;23.316;2022-11-15T11:32:49;94773.34;;;18.25;34.19
29197;BME280;62796;42.654;23.316;2022-11-15T11:35:27;94765.03;;;18.39;34.64
29197;BME280;62796;42.654;23.316;2022-11-15T11:40:56;94745.72;;;19.30;32.97
29197;BME280;62796;42.654;23.316;2022-11-15T11:43:34;94743.19;;;19.59;32.05
29197;BME280;62796;42.654;23.316;2022-11-15T11:46:38;94741.56;;;19.63;31.58
29197;BME280;62796;42.654;23.316;2022-11-15T11:49:16;94737.72;;;19.21;32.95
29197;BME280;62796;42.654;23.316;2022-11-15T11:51:50;94719.63;;;19.62;32.17
29197;BME280;62796;42.654;23.316;2022-11-15T11:54:32;94717.31;;;20.13;31.12
29197;BME280;62796;42.654;23.316;2022-11-15T11:57:03;94719.28;;;20.52;30.86
29197;BME280;62796;42.654;23.316;2022-11-15T12:02:27;94715.91;;;19.27;31.95
29197;BME280;62796;42.654;23.316;2022-11-15T12:05:01;94700.78;;;19.96;31.25
29197;BME280;62796;42.654;23.316;2022-11-15T12:07:32;94694.66;;;20.31;30.68
29197;BME280;62796;42.654;23.316;2022-11-15T12:13:06;94686.53;;;21.03;29.71
29197;BME280;62796;42.654;23.316;2022-11-15T12:18:11;94692.56;;;19.32;31.94
29197;BME280;62796;42.654;23.316;2022-11-15T12:20:40;94686.41;;;20.00;31.36
29197;BME280;62796;42.654;23.316;2022-11-15T12:23:40;94680.44;;;20.71;30.02
29197;BME280;62796;42.654;23.316;2022-11-15T12:26:22;94675.13;;;21.29;28.45
29197;BME280;62796;42.654;23.316;2022-11-15T12:29:09;94682.13;;;19.72;31.10
29197;BME280;62796;42.654;23.316;2022-11-15T12:31:45;94668.84;;;20.74;29.98
29197;BME280;62796;42.654;23.316;2022-11-15T12:36:54;94664.25;;;21.62;28.21
29197;BME280;62796;42.654;23.316;2022-11-15T12:39:20;94667.63;;;21.96;27.74
29197;BME280;62796;42.654;23.316;2022-11-15T13:02:40;94650.50;;;21.94;27.90
29197;BME280;62796;42.654;23.316;2022-11-15T13:28:02;94615.03;;;19.16;32.01
29197;BME280;62796;42.654;23.316;2022-11-15T13:30:30;94610.25;;;19.77;31.55
29197;BME280;62796;42.654;23.316;2022-11-15T13:32:59;94603.88;;;20.31;30.17
29197;BME280;62796;42.654;23.316;2022-11-15T13:35:31;94605.22;;;20.51;29.57
29197;BME280;62796;42.654;23.316;2022-11-15T13:38:03;94619.34;;;18.91;33.23
29197;BME280;62796;42.654;23.316;2022-11-15T13:40:34;94619.03;;;18.50;34.22
29197;BME280;62796;42.654;23.316;2022-11-15T13:43:35;94610.91;;;19.57;31.60
29197;BME280;62796;42.654;23.316;2022-11-15T13:48:43;94611.38;;;18.18;34.58
29197;BME280;62796;42.654;23.316;2022-11-15T13:51:40;94614.00;;;17.60;36.12
29197;BME280;62796;42.654;23.316;2022-11-15T13:56:46;94613.44;;;18.50;33.65
29197;BME280;62796;42.654;23.316;2022-11-15T14:01:44;94602.38;;;16.05;39.02
29197;BME280;62796;42.654;23.316;2022-11-15T14:04:13;94603.66;;;16.64;37.93
29197;BME280;62796;42.654;23.316;2022-11-15T14:06:52;94603.91;;;16.90;37.51
29197;BME280;62796;42.654;23.316;2022-11-15T14:09:38;94596.91;;;15.48;40.75
29197;BME280;62796;42.654;23.316;2022-11-15T14:14:49;94591.13;;;14.77;42.30
29197;BME280;62796;42.654;23.316;2022-11-15T14:19:56;94585.59;;;14.66;41.45
29197;BME280;62796;42.654;23.316;2022-11-15T14:27:38;94591.97;;;14.33;43.61
29197;BME280;62796;42.654;23.316;2022-11-15T14:30:05;94591.69;;;13.65;44.42
29197;BME280;62796;42.654;23.316;2022-11-15T14:32:48;94597.28;;;12.41;49.38
29197;BME280;62796;42.654;23.316;2022-11-15T14:35:20;94601.63;;;12.53;49.25
29197;BME280;62796;42.654;23.316;2022-11-15T14:37:46;94600.31;;;12.97;47.75
29197;BME280;62796;42.654;23.316;2022-11-15T14:40:14;94591.56;;;13.15;46.84
29197;BME280;62796;42.654;23.316;2022-11-15T14:42:41;94592.75;;;11.76;51.57
29197;BME280;62796;42.654;23.316;2022-11-15T14:45:20;94600.84;;;11.28;53.20
29197;BME280;62796;42.654;23.316;2022-11-15T14:47:46;94608.19;;;11.82;51.55
29197;BME280;62796;42.654;23.316;2022-11-15T14:50:13;94607.97;;;12.17;50.23
29197;BME280;62796;42.654;23.316;2022-11-15T14:52:40;94592.00;;;11.75;50.22
29197;BME280;62796;42.654;23.316;2022-11-15T14:55:31;94606.91;;;10.86;54.92
29197;BME280;62796;42.654;23.316;2022-11-15T14:58:04;94595.84;;;10.86;54.38
29197;BME280;62796;42.654;23.316;2022-11-15T15:00:30;94592.38;;;10.71;55.56
29197;BME280;62796;42.654;23.316;2022-11-15T15:02:56;94600.22;;;11.18;53.54
29197;BME280;62796;42.654;23.316;2022-11-15T15:05:24;94597.69;;;10.94;53.39
29197;BME280;62796;42.654;23.316;2022-11-15T15:07:51;94599.25;;;10.20;57.47
29197;BME280;62796;42.654;23.316;2022-11-15T15:10:18;94590.78;;;9.80;58.57
29197;BME280;62796;42.654;23.316;2022-11-15T15:12:44;94595.41;;;9.54;59.72
29197;BME280;62796;42.654;23.316;2022-11-15T15:15:21;94592.28;;;10.10;57.55